sensor_id;sensor_type;location;lat;lon;timestamp;temperature;humidity
66610;DHT22;53468;48.276;14.416;2022-08-25T00:03:26;17.30;99.90
66610;DHT22;53468;48.276;14.416;2022-08-25T00:09:02;17.30;99.90
66610;DHT22;53468;48.276;14.416;2022-08-25T00:14:37;17.30;99.90
66610;DHT22;53468;48.276;14.416;2022-08-25T00:20:11;17.20;99.90
66610;DHT22;53468;48.276;14.416;2022-08-25T00:25:47;17.20;99.90
66610;DHT22;53468;48.276;14.416;2022-08-25T00:31:21;17.20;99.90
66610;DHT22;53468;48.276;14.416;2022-08-25T00:36:55;17.20;99.90
66610;DHT22;53468;48.276;14.416;2022-08-25T00:42:33;17.10;99.90
66610;DHT22;53468;48.276;14.416;2022-08-25T00:48:08;17.10;99.90
66610;DHT22;53468;48.276;14.416;2022-08-25T00:53:46;17.20;99.90
66610;DHT22;53468;48.276;14.416;2022-08-25T00:59:22;17.20;99.90
66610;DHT22;53468;48.276;14.416;2022-08-25T01:04:57;17.20;99.90
66610;DHT22;53468;48.276;14.416;2022-08-25T01:10:33;17.30;99.90
66610;DHT22;53468;48.276;14.416;2022-08-25T01:16:16;17.40;99.90
66610;DHT22;53468;48.276;14.416;2022-08-25T01:21:53;17.40;99.90
66610;DHT22;53468;48.276;14.416;2022-08-25T01:27:26;17.50;99.90
66610;DHT22;53468;48.276;14.416;2022-08-25T01:33:02;17.50;99.90
66610;DHT22;53468;48.276;14.416;2022-08-25T01:38:37;17.50;99.90
66610;DHT22;53468;48.276;14.416;2022-08-25T01:44:11;17.50;99.90
66610;DHT22;53468;48.276;14.416;2022-08-25T01:49:46;17.50;99.90
66610;DHT22;53468;48.276;14.416;2022-08-25T01:55:21;17.50;99.90
66610;DHT22;53468;48.276;14.416;2022-08-25T02:00:55;17.40;99.90
66610;DHT22;53468;48.276;14.416;2022-08-25T02:06:31;17.40;99.90
66610;DHT22;53468;48.276;14.416;2022-08-25T02:12:07;17.40;99.90
66610;DHT22;53468;48.276;14.416;2022-08-25T02:17:41;17.30;99.90
66610;DHT22;53468;48.276;14.416;2022-08-25T02:23:14;17.30;99.90
66610;DHT22;53468;48.276;14.416;2022-08-25T02:28:50;17.20;99.90
66610;DHT22;53468;48.276;14.416;2022-08-25T02:34:23;17.10;99.90
66610;DHT22;53468;48.276;14.416;2022-08-25T02:39:59;17.10;99.90
66610;DHT22;53468;48.276;14.416;2022-08-25T02:45:34;17.00;99.90
66610;DHT22;53468;48.276;14.416;2022-08-25T02:51:09;16.90;99.90
66610;DHT22;53468;48.276;14.416;2022-08-25T02:56:44;16.90;99.90
66610;DHT22;53468;48.276;14.416;2022-08-25T03:02:19;16.90;99.90
66610;DHT22;53468;48.276;14.416;2022-08-25T03:07:54;17.00;99.90
66610;DHT22;53468;48.276;14.416;2022-08-25T03:13:29;17.10;99.90
66610;DHT22;53468;48.276;14.416;2022-08-25T03:19:05;17.20;99.90
66610;DHT22;53468;48.276;14.416;2022-08-25T03:24:38;17.10;99.90
66610;DHT22;53468;48.276;14.416;2022-08-25T03:30:12;17.10;99.90
66610;DHT22;53468;48.276;14.416;2022-08-25T03:35:47;17.00;99.90
66610;DHT22;53468;48.276;14.416;2022-08-25T03:41:23;17.10;99.90
66610;DHT22;53468;48.276;14.416;2022-08-25T03:46:58;17.10;99.90
66610;DHT22;53468;48.276;14.416;2022-08-25T03:52:36;17.10;99.90
66610;DHT22;53468;48.276;14.416;2022-08-25T03:58:10;17.00;99.90
66610;DHT22;53468;48.276;14.416;2022-08-25T04:03:43;17.00;99.90
66610;DHT22;53468;48.276;14.416;2022-08-25T04:09:19;17.00;99.90
66610;DHT22;53468;48.276;14.416;2022-08-25T04:14:57;17.10;99.90
66610;DHT22;53468;48.276;14.416;2022-08-25T04:20:32;17.10;99.90
66610;DHT22;53468;48.276;14.416;2022-08-25T04:26:09;17.10;99.90
66610;DHT22;53468;48.276;14.416;2022-08-25T04:31:45;17.10;99.90
66610;DHT22;53468;48.276;14.416;2022-08-25T04:37:20;17.20;99.90
66610;DHT22;53468;48.276;14.416;2022-08-25T04:42:55;17.30;99.90
66610;DHT22;53468;48.276;14.416;2022-08-25T04:48:28;17.30;99.90
66610;DHT22;53468;48.276;14.416;2022-08-25T04:54:03;17.40;99.90
66610;DHT22;53468;48.276;14.416;2022-08-25T04:59:37;17.50;99.90
66610;DHT22;53468;48.276;14.416;2022-08-25T05:05:10;17.60;99.90
66610;DHT22;53468;48.276;14.416;2022-08-25T05:10:43;17.60;99.90
66610;DHT22;53468;48.276;14.416;2022-08-25T05:16:17;17.70;99.90
66610;DHT22;53468;48.276;14.416;2022-08-25T05:21:50;17.80;99.90
66610;DHT22;53468;48.276;14.416;2022-08-25T05:27:23;17.90;99.90
66610;DHT22;53468;48.276;14.416;2022-08-25T05:32:57;18.00;99.90
66610;DHT22;53468;48.276;14.416;2022-08-25T05:38:29;18.10;99.90
66610;DHT22;53468;48.276;14.416;2022-08-25T05:44:02;18.20;99.90
66610;DHT22;53468;48.276;14.416;2022-08-25T05:49:37;18.30;99.90
66610;DHT22;53468;48.276;14.416;2022-08-25T05:55:09;18.40;99.90
66610;DHT22;53468;48.276;14.416;2022-08-25T06:00:42;18.50;99.90
66610;DHT22;53468;48.276;14.416;2022-08-25T06:06:16;18.70;99.90
66610;DHT22;53468;48.276;14.416;2022-08-25T06:11:48;18.90;99.90
66610;DHT22;53468;48.276;14.416;2022-08-25T06:17:20;19.10;99.90
66610;DHT22;53468;48.276;14.416;2022-08-25T06:22:55;19.20;99.90
66610;DHT22;53468;48.276;14.416;2022-08-25T06:28:28;19.30;99.90
66610;DHT22;53468;48.276;14.416;2022-08-25T06:34:00;19.40;99.90
66610;DHT22;53468;48.276;14.416;2022-08-25T06:39:33;19.30;99.90
66610;DHT22;53468;48.276;14.416;2022-08-25T06:45:06;19.50;99.90
66610;DHT22;53468;48.276;14.416;2022-08-25T06:50:39;19.70;99.90
66610;DHT22;53468;48.276;14.416;2022-08-25T06:56:12;19.80;99.90
66610;DHT22;53468;48.276;14.416;2022-08-25T07:01:45;19.90;99.90
66610;DHT22;53468;48.276;14.416;2022-08-25T07:07:18;19.80;99.90
66610;DHT22;53468;48.276;14.416;2022-08-25T07:12:52;19.80;99.90
66610;DHT22;53468;48.276;14.416;2022-08-25T07:18:25;20.00;99.90
66610;DHT22;53468;48.276;14.416;2022-08-25T07:23:58;20.20;99.90
66610;DHT22;53468;48.276;14.416;2022-08-25T07:29:32;20.40;99.90
66610;DHT22;53468;48.276;14.416;2022-08-25T07:35:09;20.60;99.90
66610;DHT22;53468;48.276;14.416;2022-08-25T07:40:47;20.70;99.90
66610;DHT22;53468;48.276;14.416;2022-08-25T07:46:25;20.80;99.90
66610;DHT22;53468;48.276;14.416;2022-08-25T07:51:58;21.00;99.90
66610;DHT22;53468;48.276;14.416;2022-08-25T07:57:30;21.20;99.90
66610;DHT22;53468;48.276;14.416;2022-08-25T08:03:05;21.30;99.90
66610;DHT22;53468;48.276;14.416;2022-08-25T08:08:38;21.30;99.90
66610;DHT22;53468;48.276;14.416;2022-08-25T08:14:12;21.50;99.90
66610;DHT22;53468;48.276;14.416;2022-08-25T08:19:47;21.70;99.90
66610;DHT22;53468;48.276;14.416;2022-08-25T08:25:20;22.00;99.90
66610;DHT22;53468;48.276;14.416;2022-08-25T08:30:52;22.10;99.90
66610;DHT22;53468;48.276;14.416;2022-08-25T08:36:26;22.30;99.90
66610;DHT22;53468;48.276;14.416;2022-08-25T08:42:11;22.40;99.90
66610;DHT22;53468;48.276;14.416;2022-08-25T08:48:07;22.60;99.90
66610;DHT22;53468;48.276;14.416;2022-08-25T08:53:47;22.60;99.90
66610;DHT22;53468;48.276;14.416;2022-08-25T08:59:24;23.00;99.90
66610;DHT22;53468;48.276;14.416;2022-08-25T09:05:00;23.10;99.90
66610;DHT22;53468;48.276;14.416;2022-08-25T09:10:42;23.20;99.90
66610;DHT22;53468;48.276;14.416;2022-08-25T09:16:25;23.30;99.90
66610;DHT22;53468;48.276;14.416;2022-08-25T09:22:29;23.40;99.90
66610;DHT22;53468;48.276;14.416;2022-08-25T09:28:07;23.70;99.90
66610;DHT22;53468;48.276;14.416;2022-08-25T09:33:40;24.00;99.90
66610;DHT22;53468;48.276;14.416;2022-08-25T09:39:13;24.40;99.90
66610;DHT22;53468;48.276;14.416;2022-08-25T09:44:47;24.60;99.90
66610;DHT22;53468;48.276;14.416;2022-08-25T09:50:19;24.70;99.90
66610;DHT22;53468;48.276;14.416;2022-08-25T09:55:58;24.70;99.90
66610;DHT22;53468;48.276;14.416;2022-08-25T10:01:32;24.70;99.90
66610;DHT22;53468;48.276;14.416;2022-08-25T10:07:20;24.40;99.90
66610;DHT22;53468;48.276;14.416;2022-08-25T10:12:52;24.10;99.90
66610;DHT22;53468;48.276;14.416;2022-08-25T10:18:29;24.20;99.90
66610;DHT22;53468;48.276;14.416;2022-08-25T10:24:02;23.80;99.90
66610;DHT22;53468;48.276;14.416;2022-08-25T10:35:56;24.10;99.90
66610;DHT22;53468;48.276;14.416;2022-08-25T10:41:46;24.60;99.90
66610;DHT22;53468;48.276;14.416;2022-08-25T10:47:40;25.00;99.90
66610;DHT22;53468;48.276;14.416;2022-08-25T10:53:33;25.20;99.90
66610;DHT22;53468;48.276;14.416;2022-08-25T10:59:26;25.50;99.90
66610;DHT22;53468;48.276;14.416;2022-08-25T11:05:04;25.60;99.90
66610;DHT22;53468;48.276;14.416;2022-08-25T11:10:46;25.70;99.90
66610;DHT22;53468;48.276;14.416;2022-08-25T11:16:25;25.70;99.90
66610;DHT22;53468;48.276;14.416;2022-08-25T11:22:06;25.80;99.90
66610;DHT22;53468;48.276;14.416;2022-08-25T11:27:46;26.00;99.90
66610;DHT22;53468;48.276;14.416;2022-08-25T11:33:23;26.30;99.90
66610;DHT22;53468;48.276;14.416;2022-08-25T11:39:14;26.00;99.90
66610;DHT22;53468;48.276;14.416;2022-08-25T11:45:00;26.10;99.90
66610;DHT22;53468;48.276;14.416;2022-08-25T11:50:54;25.90;99.90
66610;DHT22;53468;48.276;14.416;2022-08-25T11:56:31;26.00;99.90
66610;DHT22;53468;48.276;14.416;2022-08-25T12:02:06;25.70;99.90
66610;DHT22;53468;48.276;14.416;2022-08-25T12:07:58;25.70;99.90
66610;DHT22;53468;48.276;14.416;2022-08-25T12:14:09;25.70;99.90
66610;DHT22;53468;48.276;14.416;2022-08-25T12:20:00;25.90;99.90
66610;DHT22;53468;48.276;14.416;2022-08-25T12:25:44;26.30;99.90
66610;DHT22;53468;48.276;14.416;2022-08-25T12:31:29;26.50;99.90
66610;DHT22;53468;48.276;14.416;2022-08-25T12:37:13;26.50;99.90
66610;DHT22;53468;48.276;14.416;2022-08-25T12:42:46;26.50;99.90
66610;DHT22;53468;48.276;14.416;2022-08-25T12:48:41;26.60;99.90
66610;DHT22;53468;48.276;14.416;2022-08-25T12:54:17;26.70;99.90
66610;DHT22;53468;48.276;14.416;2022-08-25T12:59:53;26.60;99.90
66610;DHT22;53468;48.276;14.416;2022-08-25T13:05:44;26.70;99.90
66610;DHT22;53468;48.276;14.416;2022-08-25T13:11:23;26.90;99.90
66610;DHT22;53468;48.276;14.416;2022-08-25T13:16:59;26.90;99.90
66610;DHT22;53468;48.276;14.416;2022-08-25T13:22:31;26.90;99.90
66610;DHT22;53468;48.276;14.416;2022-08-25T13:28:05;27.00;99.90
66610;DHT22;53468;48.276;14.416;2022-08-25T13:33:37;27.00;99.90
66610;DHT22;53468;48.276;14.416;2022-08-25T13:39:12;27.20;99.90
66610;DHT22;53468;48.276;14.416;2022-08-25T13:44:47;27.20;99.90
66610;DHT22;53468;48.276;14.416;2022-08-25T13:50:29;27.20;99.90
66610;DHT22;53468;48.276;14.416;2022-08-25T13:56:02;27.30;99.90
66610;DHT22;53468;48.276;14.416;2022-08-25T14:01:43;27.30;99.90
66610;DHT22;53468;48.276;14.416;2022-08-25T14:07:27;27.50;99.90
66610;DHT22;53468;48.276;14.416;2022-08-25T14:13:12;27.60;99.90
66610;DHT22;53468;48.276;14.416;2022-08-25T14:18:49;27.60;99.90
66610;DHT22;53468;48.276;14.416;2022-08-25T14:24:22;27.80;99.90
66610;DHT22;53468;48.276;14.416;2022-08-25T14:29:55;27.80;99.90
66610;DHT22;53468;48.276;14.416;2022-08-25T14:35:29;27.70;99.90
66610;DHT22;53468;48.276;14.416;2022-08-25T14:41:01;27.70;99.90
66610;DHT22;53468;48.276;14.416;2022-08-25T14:46:37;27.90;99.90
66610;DHT22;53468;48.276;14.416;2022-08-25T14:52:16;27.70;99.90
66610;DHT22;53468;48.276;14.416;2022-08-25T14:57:49;27.60;99.90
66610;DHT22;53468;48.276;14.416;2022-08-25T15:03:29;27.40;99.90
66610;DHT22;53468;48.276;14.416;2022-08-25T15:09:04;27.10;99.90
66610;DHT22;53468;48.276;14.416;2022-08-25T15:14:41;26.90;99.90
66610;DHT22;53468;48.276;14.416;2022-08-25T15:20:14;26.80;99.90
66610;DHT22;53468;48.276;14.416;2022-08-25T15:25:48;26.60;99.90
66610;DHT22;53468;48.276;14.416;2022-08-25T15:31:21;26.50;99.90
66610;DHT22;53468;48.276;14.416;2022-08-25T15:36:53;26.60;99.90
66610;DHT22;53468;48.276;14.416;2022-08-25T15:42:27;26.60;99.90
66610;DHT22;53468;48.276;14.416;2022-08-25T15:47:59;26.60;99.90
66610;DHT22;53468;48.276;14.416;2022-08-25T15:53:33;26.60;99.90
66610;DHT22;53468;48.276;14.416;2022-08-25T15:59:07;26.50;99.90
66610;DHT22;53468;48.276;14.416;2022-08-25T16:04:39;26.30;99.90
66610;DHT22;53468;48.276;14.416;2022-08-25T16:10:11;26.20;99.90
66610;DHT22;53468;48.276;14.416;2022-08-25T16:15:47;26.20;99.90
66610;DHT22;53468;48.276;14.416;2022-08-25T16:21:21;26.00;99.90
66610;DHT22;53468;48.276;14.416;2022-08-25T16:26:56;25.90;99.90
66610;DHT22;53468;48.276;14.416;2022-08-25T16:32:36;25.70;99.90
66610;DHT22;53468;48.276;14.416;2022-08-25T16:38:09;25.60;99.90
66610;DHT22;53468;48.276;14.416;2022-08-25T16:43:42;25.40;99.90
66610;DHT22;53468;48.276;14.416;2022-08-25T16:49:17;25.20;99.90
66610;DHT22;53468;48.276;14.416;2022-08-25T16:54:49;25.00;99.90
66610;DHT22;53468;48.276;14.416;2022-08-25T17:00:38;24.90;99.90
66610;DHT22;53468;48.276;14.416;2022-08-25T17:06:13;24.70;99.90
66610;DHT22;53468;48.276;14.416;2022-08-25T17:11:46;24.50;99.90
66610;DHT22;53468;48.276;14.416;2022-08-25T17:17:22;24.30;99.90
66610;DHT22;53468;48.276;14.416;2022-08-25T17:22:55;24.10;99.90
66610;DHT22;53468;48.276;14.416;2022-08-25T17:28:28;23.90;99.90
66610;DHT22;53468;48.276;14.416;2022-08-25T17:34:00;23.70;99.90
66610;DHT22;53468;48.276;14.416;2022-08-25T17:39:34;23.60;99.90
66610;DHT22;53468;48.276;14.416;2022-08-25T17:45:06;23.40;99.90
66610;DHT22;53468;48.276;14.416;2022-08-25T17:50:40;23.20;99.90
66610;DHT22;53468;48.276;14.416;2022-08-25T17:56:15;23.10;99.90
66610;DHT22;53468;48.276;14.416;2022-08-25T18:01:48;22.90;99.90
66610;DHT22;53468;48.276;14.416;2022-08-25T18:07:21;22.80;99.90
66610;DHT22;53468;48.276;14.416;2022-08-25T18:12:55;22.60;99.90
66610;DHT22;53468;48.276;14.416;2022-08-25T18:18:27;22.40;99.90
66610;DHT22;53468;48.276;14.416;2022-08-25T18:24:00;22.30;99.90
66610;DHT22;53468;48.276;14.416;2022-08-25T18:29:34;22.20;99.90
66610;DHT22;53468;48.276;14.416;2022-08-25T18:35:07;22.10;99.90
66610;DHT22;53468;48.276;14.416;2022-08-25T18:40:39;21.90;99.90
66610;DHT22;53468;48.276;14.416;2022-08-25T18:46:14;21.70;99.90
66610;DHT22;53468;48.276;14.416;2022-08-25T18:51:47;21.60;99.90
66610;DHT22;53468;48.276;14.416;2022-08-25T18:57:19;21.50;99.90
66610;DHT22;53468;48.276;14.416;2022-08-25T19:02:56;21.50;99.90
66610;DHT22;53468;48.276;14.416;2022-08-25T19:08:29;21.40;99.90
66610;DHT22;53468;48.276;14.416;2022-08-25T19:14:02;21.40;99.90
66610;DHT22;53468;48.276;14.416;2022-08-25T19:19:36;21.30;99.90
66610;DHT22;53468;48.276;14.416;2022-08-25T19:25:09;21.30;99.90
66610;DHT22;53468;48.276;14.416;2022-08-25T19:30:42;21.20;99.90
66610;DHT22;53468;48.276;14.416;2022-08-25T19:36:20;21.00;99.90
66610;DHT22;53468;48.276;14.416;2022-08-25T19:41:53;21.10;99.90
66610;DHT22;53468;48.276;14.416;2022-08-25T19:47:26;21.10;99.90
66610;DHT22;53468;48.276;14.416;2022-08-25T19:53:00;21.10;99.90
66610;DHT22;53468;48.276;14.416;2022-08-25T19:58:33;21.10;99.90
66610;DHT22;53468;48.276;14.416;2022-08-25T20:04:06;21.10;99.90
66610;DHT22;53468;48.276;14.416;2022-08-25T20:09:42;20.90;99.90
66610;DHT22;53468;48.276;14.416;2022-08-25T20:15:16;20.90;99.90
66610;DHT22;53468;48.276;14.416;2022-08-25T20:20:49;20.80;99.90
66610;DHT22;53468;48.276;14.416;2022-08-25T20:26:25;20.70;99.90
66610;DHT22;53468;48.276;14.416;2022-08-25T20:31:59;20.60;99.90
66610;DHT22;53468;48.276;14.416;2022-08-25T20:37:31;20.50;99.90
66610;DHT22;53468;48.276;14.416;2022-08-25T20:43:05;20.50;99.90
66610;DHT22;53468;48.276;14.416;2022-08-25T20:48:38;20.40;99.90
66610;DHT22;53468;48.276;14.416;2022-08-25T20:54:14;20.40;99.90
66610;DHT22;53468;48.276;14.416;2022-08-25T20:59:48;20.30;99.90
66610;DHT22;53468;48.276;14.416;2022-08-25T21:05:21;20.20;99.90
66610;DHT22;53468;48.276;14.416;2022-08-25T21:10:53;20.20;99.90
66610;DHT22;53468;48.276;14.416;2022-08-25T21:16:28;20.20;99.90
66610;DHT22;53468;48.276;14.416;2022-08-25T21:22:01;20.10;99.90
66610;DHT22;53468;48.276;14.416;2022-08-25T21:27:33;20.00;99.90
66610;DHT22;53468;48.276;14.416;2022-08-25T21:33:07;19.90;99.90
66610;DHT22;53468;48.276;14.416;2022-08-25T21:38:41;19.90;99.90
66610;DHT22;53468;48.276;14.416;2022-08-25T21:44:14;19.90;99.90
66610;DHT22;53468;48.276;14.416;2022-08-25T21:49:48;19.90;99.90
66610;DHT22;53468;48.276;14.416;2022-08-25T21:55:21;19.80;99.90
66610;DHT22;53468;48.276;14.416;2022-08-25T22:00:54;19.80;99.90
66610;DHT22;53468;48.276;14.416;2022-08-25T22:06:28;19.70;99.90
66610;DHT22;53468;48.276;14.416;2022-08-25T22:12:03;19.70;99.90
66610;DHT22;53468;48.276;14.416;2022-08-25T22:17:36;19.70;99.90
66610;DHT22;53468;48.276;14.416;2022-08-25T22:23:10;19.60;99.90
66610;DHT22;53468;48.276;14.416;2022-08-25T22:28:43;19.60;99.90
66610;DHT22;53468;48.276;14.416;2022-08-25T22:34:18;19.50;99.90
66610;DHT22;53468;48.276;14.416;2022-08-25T22:39:54;19.50;99.90
66610;DHT22;53468;48.276;14.416;2022-08-25T22:45:27;19.50;99.90
66610;DHT22;53468;48.276;14.416;2022-08-25T22:51:05;19.30;99.90
66610;DHT22;53468;48.276;14.416;2022-08-25T22:56:40;19.30;99.90
66610;DHT22;53468;48.276;14.416;2022-08-25T23:02:13;19.20;99.90
66610;DHT22;53468;48.276;14.416;2022-08-25T23:07:46;19.20;99.90
66610;DHT22;53468;48.276;14.416;2022-08-25T23:13:22;19.20;99.90
66610;DHT22;53468;48.276;14.416;2022-08-25T23:18:57;19.20;99.90
66610;DHT22;53468;48.276;14.416;2022-08-25T23:24:30;19.10;99.90
66610;DHT22;53468;48.276;14.416;2022-08-25T23:30:06;19.00;99.90
66610;DHT22;53468;48.276;14.416;2022-08-25T23:35:39;19.00;99.90
66610;DHT22;53468;48.276;14.416;2022-08-25T23:41:17;18.90;99.90
66610;DHT22;53468;48.276;14.416;2022-08-25T23:46:52;18.90;99.90
66610;DHT22;53468;48.276;14.416;2022-08-25T23:52:27;18.90;99.90
66610;DHT22;53468;48.276;14.416;2022-08-25T23:58:01;18.90;99.90
